createdAt,value
2022-10-11T00:05:20.207Z,100.00
2022-10-11T00:18:07.199Z,100.00
2022-10-11T00:46:13.587Z,100.00
2022-10-11T00:58:59.399Z,100.00
2022-10-11T01:20:39.123Z,100.00
2022-10-11T01:33:29.754Z,100.00
2022-10-11T01:57:27.718Z,100.00
2022-10-11T02:21:12.042Z,100.00
2022-10-11T02:42:44.983Z,100.00
2022-10-11T02:55:32.775Z,100.00
2022-10-11T03:08:21.160Z,100.00
2022-10-11T03:21:07.360Z,100.00
2022-10-11T03:33:53.164Z,100.00
2022-10-11T03:46:41.339Z,100.00
2022-10-11T04:01:38.528Z,100.00
2022-10-11T04:14:26.204Z,100.00
2022-10-11T04:27:13.429Z,100.00
2022-10-11T04:46:30.978Z,100.00
2022-10-11T04:48:51.947Z,100.00
2022-10-11T05:01:39.651Z,100.00
2022-10-11T05:16:35.004Z,100.00
2022-10-11T05:35:49.571Z,100.00
2022-10-11T05:48:34.909Z,100.00
2022-10-11T06:05:43.606Z,100.00
2022-10-11T06:18:46.008Z,100.00
2022-10-11T06:31:32.867Z,100.00
2022-10-11T06:33:53.303Z,100.00
2022-10-11T06:46:52.548Z,100.00
2022-10-11T07:01:48.039Z,100.00
2022-10-11T07:27:01.141Z,100.00
2022-10-11T07:39:46.900Z,99.82
2022-10-11T07:42:10.335Z,100.00
2022-10-11T07:44:30.143Z,99.59
2022-10-11T07:46:50.642Z,100.00
2022-10-11T07:49:09.646Z,100.00
2022-10-11T08:01:55.282Z,100.00
2022-10-11T08:32:18.827Z,100.00
2022-10-11T08:34:41.863Z,100.00
2022-10-11T08:47:29.216Z,100.00
2022-10-11T08:49:35.289Z,100.00
2022-10-11T08:51:43.429Z,99.51
2022-10-11T08:53:52.872Z,100.00
2022-10-11T08:55:56.969Z,100.00
2022-10-11T08:58:04.063Z,100.00
2022-10-11T09:00:12.439Z,100.00
2022-10-11T09:02:23.330Z,100.00
2022-10-11T09:04:28.901Z,100.00
2022-10-11T09:06:43.903Z,100.00
2022-10-11T09:09:00.995Z,98.61
2022-10-11T09:11:10.038Z,99.82
2022-10-11T09:13:31.126Z,100.00
2022-10-11T09:15:46.921Z,99.04
2022-10-11T09:18:19.408Z,99.85
2022-10-11T09:20:47.259Z,99.53
2022-10-11T09:22:56.883Z,98.31
2022-10-11T09:25:19.766Z,97.54
2022-10-11T09:27:50.305Z,97.45
2022-10-11T09:30:00.898Z,95.87
2022-10-11T09:32:04.494Z,96.49
2022-10-11T09:34:12.464Z,97.00
2022-10-11T09:36:21.716Z,94.69
2022-10-11T09:38:35.564Z,95.71
2022-10-11T09:40:47.847Z,96.72
2022-10-11T09:42:51.139Z,97.29
2022-10-11T09:44:55.302Z,95.08
2022-10-11T09:46:59.103Z,96.21
2022-10-11T09:49:04.141Z,94.90
2022-10-11T09:51:14.340Z,94.63
2022-10-11T09:53:19.354Z,95.12
2022-10-11T09:55:32.338Z,95.25
2022-10-11T09:57:37.706Z,94.93
2022-10-11T09:59:41.084Z,95.55
2022-10-11T10:01:44.681Z,93.50
2022-10-11T10:03:47.972Z,93.78
2022-10-11T10:06:05.949Z,94.89
2022-10-11T10:08:26.877Z,94.39
2022-10-11T10:10:35.038Z,93.02
2022-10-11T10:12:38.225Z,93.92
2022-10-11T10:14:41.903Z,92.71
2022-10-11T10:16:45.109Z,93.97
2022-10-11T10:18:51.496Z,93.54
2022-10-11T10:20:56.425Z,93.25
2022-10-11T10:23:00.614Z,93.51
2022-10-11T10:25:08.099Z,93.33
2022-10-11T10:27:21.334Z,93.30
2022-10-11T10:29:24.351Z,94.26
2022-10-11T10:31:40.290Z,93.16
2022-10-11T10:33:55.918Z,92.91
2022-10-11T10:36:02.606Z,94.40
2022-10-11T10:38:13.730Z,93.46
2022-10-11T10:40:21.476Z,93.19
2022-10-11T10:42:24.560Z,94.10
2022-10-11T10:44:27.698Z,93.96
2022-10-11T10:46:47.206Z,93.94
2022-10-11T10:49:28.783Z,91.78
2022-10-11T10:51:27.592Z,92.21
2022-10-11T10:53:35.521Z,91.96
2022-10-11T10:55:43.564Z,90.04
2022-10-11T10:57:57.904Z,90.60
2022-10-11T11:00:12.325Z,89.87
2022-10-11T11:02:39.086Z,90.26
2022-10-11T11:04:47.215Z,89.51
2022-10-11T11:06:51.850Z,89.97
2022-10-11T11:09:05.360Z,88.13
2022-10-11T11:11:19.013Z,87.53
2022-10-11T11:13:28.617Z,88.74
2022-10-11T11:15:38.203Z,86.73
2022-10-11T11:17:53.443Z,86.92
2022-10-11T11:20:10.025Z,86.28
2022-10-11T11:22:17.609Z,86.79
2022-10-11T11:24:28.820Z,85.76
2022-10-11T11:26:44.037Z,87.00
2022-10-11T11:28:54.402Z,85.72
2022-10-11T11:31:04.626Z,87.02
2022-10-11T11:33:16.364Z,85.32
2022-10-11T11:35:27.801Z,85.58
2022-10-11T11:37:33.834Z,85.61
2022-10-11T11:39:39.036Z,85.74
2022-10-11T11:41:46.557Z,85.46
2022-10-11T11:43:58.413Z,86.05
2022-10-11T11:46:06.738Z,85.78
2022-10-11T11:48:14.716Z,86.12
2022-10-11T11:50:22.827Z,85.67
2022-10-11T11:52:30.509Z,85.16
2022-10-11T11:54:40.780Z,86.51
2022-10-11T11:56:53.087Z,86.16
2022-10-11T11:59:03.248Z,86.00
2022-10-11T12:01:16.998Z,85.71
2022-10-11T12:03:23.357Z,85.50
2022-10-11T12:05:28.821Z,85.85
2022-10-11T12:07:32.027Z,85.16
2022-10-11T12:09:39.743Z,85.20
2022-10-11T12:11:49.982Z,84.40
2022-10-11T12:13:54.573Z,85.00
2022-10-11T12:16:13.983Z,85.30
2022-10-11T12:18:18.206Z,84.87
2022-10-11T12:20:25.294Z,84.88
2022-10-11T12:23:00.188Z,84.13
2022-10-11T12:25:43.576Z,83.33
2022-10-11T12:27:48.474Z,83.70
2022-10-11T12:29:51.948Z,83.47
2022-10-11T12:32:27.690Z,82.94
2022-10-11T12:34:35.610Z,83.99
2022-10-11T12:36:43.308Z,84.10
2022-10-11T12:38:46.630Z,84.88
2022-10-11T12:40:54.280Z,83.86
2022-10-11T12:43:27.376Z,82.89
2022-10-11T12:45:32.839Z,83.28
2022-10-11T12:47:39.262Z,83.02
2022-10-11T12:49:53.151Z,82.75
2022-10-11T12:52:01.539Z,82.02
2022-10-11T12:54:27.108Z,83.04
2022-10-11T12:56:43.771Z,83.42
2022-10-11T12:58:48.681Z,82.78
2022-10-11T13:01:16.705Z,83.77
2022-10-11T13:03:32.602Z,82.76
2022-10-11T13:05:45.049Z,83.10
2022-10-11T13:07:49.300Z,82.13
2022-10-11T13:09:54.457Z,83.16
2022-10-11T13:12:02.399Z,81.79
2022-10-11T13:14:11.092Z,81.65
2022-10-11T13:16:16.787Z,81.42
2022-10-11T13:18:22.643Z,82.31
2022-10-11T13:20:27.998Z,80.84
2022-10-11T13:22:35.470Z,80.95
2022-10-11T13:24:40.075Z,81.84
2022-10-11T13:26:44.838Z,80.79
2022-10-11T13:28:49.392Z,82.14
2022-10-11T13:30:54.437Z,80.02
2022-10-11T13:32:57.947Z,81.50
2022-10-11T13:35:03.401Z,81.44
2022-10-11T13:37:06.925Z,81.84
2022-10-11T13:39:30.130Z,82.19
2022-10-11T13:41:35.284Z,82.89
2022-10-11T13:43:38.612Z,81.44
2022-10-11T13:45:43.543Z,81.94
2022-10-11T13:47:47.600Z,81.21
2022-10-11T13:50:02.725Z,80.68
2022-10-11T13:52:14.534Z,80.51
2022-10-11T13:54:17.750Z,81.00
2022-10-11T13:56:21.149Z,81.49
2022-10-11T13:58:27.678Z,81.07
2022-10-11T14:00:33.586Z,82.01
2022-10-11T14:02:39.095Z,82.79
2022-10-11T14:04:42.646Z,82.72
2022-10-11T14:06:48.143Z,82.80
2022-10-11T14:08:54.264Z,82.06
2022-10-11T14:11:00.293Z,83.04
2022-10-11T14:13:08.679Z,83.15
2022-10-11T14:15:25.983Z,82.69
2022-10-11T14:17:41.360Z,82.05
2022-10-11T14:19:45.052Z,81.96
2022-10-11T14:21:51.440Z,82.57
2022-10-11T14:23:56.905Z,81.50
2022-10-11T14:25:59.966Z,81.82
2022-10-11T14:28:05.671Z,82.17
2022-10-11T14:30:29.901Z,81.20
2022-10-11T14:32:34.490Z,81.50
2022-10-11T14:34:39.216Z,82.08
2022-10-11T14:36:42.291Z,81.66
2022-10-11T14:38:45.513Z,82.06
2022-10-11T14:40:48.607Z,81.06
2022-10-11T14:42:51.838Z,81.38
2022-10-11T14:44:54.920Z,81.69
2022-10-11T14:46:57.947Z,82.33
2022-10-11T14:49:01.000Z,82.67
2022-10-11T14:51:06.400Z,82.09
2022-10-11T14:53:10.943Z,83.18
2022-10-11T14:55:14.143Z,83.29
2022-10-11T14:57:17.173Z,83.63
2022-10-11T14:59:21.969Z,83.38
2022-10-11T15:01:25.411Z,83.27
2022-10-11T15:03:28.494Z,83.86
2022-10-11T15:05:34.221Z,83.82
2022-10-11T15:07:39.066Z,83.65
2022-10-11T15:09:42.201Z,84.37
2022-10-11T15:11:45.286Z,84.33
2022-10-11T15:13:48.435Z,84.53
2022-10-11T15:15:51.435Z,83.92
2022-10-11T15:17:56.070Z,84.39
2022-10-11T15:19:59.723Z,84.31
2022-10-11T15:22:05.905Z,84.79
2022-10-11T15:24:10.790Z,84.02
2022-10-11T15:26:15.786Z,84.92
2022-10-11T15:28:24.720Z,85.11
2022-10-11T15:30:30.219Z,84.86
2022-10-11T15:32:33.330Z,84.90
2022-10-11T15:34:36.522Z,84.74
2022-10-11T15:36:41.744Z,84.98
2022-10-11T15:38:45.646Z,85.36
2022-10-11T15:40:50.389Z,85.63
2022-10-11T15:42:54.686Z,86.58
2022-10-11T15:44:58.877Z,86.24
2022-10-11T15:47:01.987Z,86.21
2022-10-11T15:49:12.872Z,86.05
2022-10-11T15:51:15.961Z,87.65
2022-10-11T15:53:20.811Z,87.49
2022-10-11T15:55:23.940Z,87.37
2022-10-11T15:57:28.558Z,87.69
2022-10-11T15:59:31.600Z,87.80
2022-10-11T16:01:34.736Z,87.92
2022-10-11T16:03:37.891Z,88.67
2022-10-11T16:05:41.722Z,88.19
2022-10-11T16:07:44.865Z,88.46
2022-10-11T16:09:47.966Z,88.27
2022-10-11T16:11:50.995Z,89.05
2022-10-11T16:13:55.494Z,88.41
2022-10-11T16:15:58.512Z,89.36
2022-10-11T16:18:02.370Z,90.00
2022-10-11T16:20:07.295Z,89.42
2022-10-11T16:22:10.373Z,90.31
2022-10-11T16:24:13.456Z,91.12
2022-10-11T16:26:17.066Z,91.21
2022-10-11T16:28:20.216Z,90.49
2022-10-11T16:30:24.907Z,91.66
2022-10-11T16:32:28.182Z,91.52
2022-10-11T16:34:31.394Z,91.95
2022-10-11T16:36:36.964Z,92.43
2022-10-11T16:38:40.078Z,93.09
2022-10-11T16:40:43.720Z,92.45
2022-10-11T16:42:47.417Z,92.27
2022-10-11T16:44:50.594Z,92.68
2022-10-11T16:46:55.764Z,92.86
2022-10-11T16:48:59.200Z,92.73
2022-10-11T16:51:09.414Z,93.20
2022-10-11T16:53:15.481Z,92.34
2022-10-11T16:55:18.943Z,92.28
2022-10-11T16:57:22.166Z,92.55
2022-10-11T16:59:25.448Z,93.30
2022-10-11T17:01:29.632Z,93.96
2022-10-11T17:03:34.078Z,93.46
2022-10-11T17:05:37.689Z,92.49
2022-10-11T17:07:40.729Z,92.58
2022-10-11T17:09:45.592Z,93.13
2022-10-11T17:11:48.865Z,93.50
2022-10-11T17:13:53.604Z,94.19
2022-10-11T17:15:56.660Z,93.02
2022-10-11T17:17:59.934Z,93.94
2022-10-11T17:20:04.846Z,94.64
2022-10-11T17:22:07.926Z,92.99
2022-10-11T17:24:10.968Z,94.56
2022-10-11T17:26:17.351Z,94.82
2022-10-11T17:28:20.812Z,95.21
2022-10-11T17:30:24.225Z,95.17
2022-10-11T17:32:27.312Z,94.64
2022-10-11T17:34:30.566Z,95.23
2022-10-11T17:36:35.342Z,95.47
2022-10-11T17:38:38.330Z,95.85
2022-10-11T17:40:41.584Z,94.19
2022-10-11T17:42:45.107Z,94.86
2022-10-11T17:44:48.157Z,95.41
2022-10-11T17:46:51.250Z,94.52
2022-10-11T17:48:55.580Z,95.24
2022-10-11T17:50:58.749Z,95.13
2022-10-11T17:53:03.101Z,95.14
2022-10-11T17:55:06.898Z,95.78
2022-10-11T17:57:10.038Z,96.67
2022-10-11T17:59:16.817Z,94.76
2022-10-11T18:01:21.752Z,94.25
2022-10-11T18:03:24.752Z,94.68
2022-10-11T18:05:27.924Z,95.26
2022-10-11T18:07:31.040Z,95.44
2022-10-11T18:09:36.803Z,95.75
2022-10-11T18:11:39.951Z,95.09
2022-10-11T18:13:46.242Z,94.67
2022-10-11T18:15:53.501Z,95.39
2022-10-11T18:17:59.583Z,95.44
2022-10-11T18:20:04.130Z,95.41
2022-10-11T18:22:08.779Z,96.85
2022-10-11T18:24:15.190Z,95.01
2022-10-11T18:26:26.681Z,96.03
2022-10-11T18:28:33.854Z,95.36
2022-10-11T18:30:42.930Z,94.77
2022-10-11T18:32:47.225Z,96.49
2022-10-11T18:34:55.037Z,96.23
2022-10-11T18:37:00.212Z,96.86
2022-10-11T18:39:05.428Z,96.68
2022-10-11T18:41:09.884Z,96.40
2022-10-11T18:43:14.464Z,95.78
2022-10-11T18:45:17.721Z,97.04
2022-10-11T18:47:21.135Z,97.22
2022-10-11T18:49:24.273Z,96.18
2022-10-11T18:51:29.549Z,96.88
2022-10-11T18:53:33.244Z,97.47
2022-10-11T18:55:36.563Z,98.08
2022-10-11T18:57:39.853Z,97.28
2022-10-11T18:59:44.880Z,97.37
2022-10-11T19:01:48.186Z,98.56
2022-10-11T19:03:53.719Z,98.35
2022-10-11T19:05:56.965Z,97.53
2022-10-11T19:08:00.259Z,98.79
2022-10-11T19:10:04.084Z,98.27
2022-10-11T19:12:07.427Z,99.06
2022-10-11T19:14:12.268Z,99.27
2022-10-11T19:16:18.273Z,98.11
2022-10-11T19:18:22.126Z,98.09
2022-10-11T19:20:25.842Z,98.88
2022-10-11T19:22:29.120Z,98.97
2022-10-11T19:24:33.100Z,97.11
2022-10-11T19:26:38.426Z,96.70
2022-10-11T19:28:47.953Z,98.10
2022-10-11T19:30:51.283Z,97.32
2022-10-11T19:32:57.731Z,97.24
2022-10-11T19:35:03.684Z,96.91
2022-10-11T19:37:13.235Z,98.56
2022-10-11T19:39:19.703Z,98.17
2022-10-11T19:41:25.229Z,96.79
2022-10-11T19:43:31.595Z,96.00
2022-10-11T19:45:37.523Z,97.93
2022-10-11T19:47:43.777Z,96.59
2022-10-11T19:49:56.676Z,96.41
2022-10-11T19:52:02.772Z,98.61
2022-10-11T19:54:10.920Z,97.31
2022-10-11T19:56:16.815Z,96.50
2022-10-11T19:58:20.677Z,97.85
2022-10-11T20:00:24.631Z,97.94
2022-10-11T20:02:34.670Z,97.79
2022-10-11T20:04:54.235Z,94.78
2022-10-11T20:06:59.200Z,96.18
2022-10-11T20:09:24.322Z,95.55
2022-10-11T20:11:28.964Z,96.69
2022-10-11T20:13:35.028Z,97.13
2022-10-11T20:15:39.532Z,95.62
2022-10-11T20:17:51.997Z,95.89
2022-10-11T20:19:55.771Z,95.21
2022-10-11T20:22:00.859Z,96.36
2022-10-11T20:24:06.528Z,95.02
2022-10-11T20:26:12.076Z,95.06
2022-10-11T20:28:16.758Z,94.51
2022-10-11T20:30:20.156Z,94.61
2022-10-11T20:32:23.888Z,94.13
2022-10-11T20:34:28.399Z,94.06
2022-10-11T20:36:33.688Z,94.54
2022-10-11T20:38:40.281Z,93.39
2022-10-11T20:40:43.439Z,94.46
2022-10-11T20:42:46.696Z,94.31
2022-10-11T20:44:49.969Z,93.71
2022-10-11T20:46:53.231Z,93.87
2022-10-11T20:49:02.408Z,93.66
2022-10-11T20:51:08.279Z,94.81
2022-10-11T20:53:16.170Z,93.70
2022-10-11T20:55:23.548Z,94.60
2022-10-11T20:57:27.278Z,93.75
2022-10-11T20:59:30.455Z,94.24
2022-10-11T21:01:35.349Z,94.46
2022-10-11T21:03:38.894Z,94.58
2022-10-11T21:05:42.618Z,93.79
2022-10-11T21:07:45.953Z,95.25
2022-10-11T21:09:51.596Z,95.25
2022-10-11T21:11:57.794Z,95.19
2022-10-11T21:14:03.180Z,95.44
2022-10-11T21:16:10.672Z,95.63
2022-10-11T21:18:15.157Z,96.62
2022-10-11T21:20:19.586Z,95.25
2022-10-11T21:22:24.174Z,94.36
2022-10-11T21:24:29.634Z,94.29
2022-10-11T21:26:35.381Z,95.94
2022-10-11T21:28:42.614Z,94.76
2022-10-11T21:30:46.632Z,95.02
2022-10-11T21:32:51.265Z,95.02
2022-10-11T21:34:55.082Z,95.64
2022-10-11T21:36:58.983Z,95.23
2022-10-11T21:39:05.910Z,93.98
2022-10-11T21:41:11.290Z,94.44
2022-10-11T21:43:15.382Z,96.43
2022-10-11T21:45:20.612Z,94.30
2022-10-11T21:47:26.006Z,95.70
2022-10-11T21:49:32.856Z,94.73
2022-10-11T21:51:36.779Z,96.42
2022-10-11T21:53:40.985Z,95.32
2022-10-11T21:55:44.722Z,95.06
2022-10-11T21:57:48.756Z,95.09
2022-10-11T21:59:52.449Z,97.06
2022-10-11T22:02:01.594Z,96.40
2022-10-11T22:04:07.373Z,96.12
2022-10-11T22:06:11.302Z,95.66
2022-10-11T22:08:15.607Z,96.11
2022-10-11T22:10:19.855Z,96.82
2022-10-11T22:12:23.482Z,97.31
2022-10-11T22:14:27.720Z,96.39
2022-10-11T22:16:31.894Z,96.70
2022-10-11T22:18:36.994Z,95.72
2022-10-11T22:20:40.917Z,95.90
2022-10-11T22:22:44.708Z,97.72
2022-10-11T22:24:48.813Z,96.14
2022-10-11T22:26:52.457Z,96.70
2022-10-11T22:28:56.526Z,96.58
2022-10-11T22:31:00.608Z,96.13
2022-10-11T22:33:04.238Z,94.62
2022-10-11T22:35:09.616Z,94.17
2022-10-11T22:37:13.339Z,94.51
2022-10-11T22:39:17.953Z,93.71
2022-10-11T22:41:22.152Z,94.70
2022-10-11T22:43:28.834Z,95.27
2022-10-11T22:45:32.839Z,94.45
2022-10-11T22:47:36.737Z,95.23
2022-10-11T22:49:40.578Z,95.13
2022-10-11T22:51:45.783Z,95.58
2022-10-11T22:53:49.288Z,96.45
2022-10-11T22:55:55.701Z,96.19
2022-10-11T22:57:59.264Z,95.98
2022-10-11T23:00:02.864Z,96.89
2022-10-11T23:02:06.371Z,96.08
2022-10-11T23:04:09.745Z,96.71
2022-10-11T23:06:13.299Z,96.85
2022-10-11T23:08:18.238Z,96.18
2022-10-11T23:10:21.599Z,96.97
2022-10-11T23:12:25.294Z,96.52
2022-10-11T23:14:28.738Z,97.09
2022-10-11T23:16:33.495Z,96.55
2022-10-11T23:18:37.628Z,97.87
2022-10-11T23:20:41.063Z,96.89
2022-10-11T23:22:44.582Z,96.31
2022-10-11T23:24:49.664Z,98.21
2022-10-11T23:26:54.700Z,97.18
2022-10-11T23:28:58.511Z,98.78
2022-10-11T23:31:02.190Z,98.57
2022-10-11T23:33:05.642Z,97.28
2022-10-11T23:35:09.722Z,98.63
2022-10-11T23:37:13.413Z,96.98
2022-10-11T23:39:17.220Z,96.49
2022-10-11T23:41:22.712Z,97.79
2022-10-11T23:43:26.506Z,97.27
2022-10-11T23:45:29.921Z,96.02
2022-10-11T23:47:33.321Z,95.10
2022-10-11T23:49:36.906Z,94.15
2022-10-11T23:51:40.403Z,95.06
2022-10-11T23:53:44.217Z,94.65
2022-10-11T23:55:47.535Z,94.63
2022-10-11T23:57:52.249Z,93.48
2022-10-11T23:59:55.620Z,94.21
